sensor_id;sensor_type;location;lat;lon;timestamp;P1;P2;P0
78063;PMS5003;67429;51.596;-3.264;2023-04-10T00:01:21;17;17;
78063;PMS5003;67429;51.596;-3.264;2023-04-10T00:03:47;17;16;
78063;PMS5003;67429;51.596;-3.264;2023-04-10T00:06:13;13;12;
78063;PMS5003;67429;51.596;-3.264;2023-04-10T00:08:39;11;11;
78063;PMS5003;67429;51.596;-3.264;2023-04-10T00:11:04;8;8;
78063;PMS5003;67429;51.596;-3.264;2023-04-10T00:13:29;7;6;
78063;PMS5003;67429;51.596;-3.264;2023-04-10T00:15:55;5;5;
78063;PMS5003;67429;51.596;-3.264;2023-04-10T00:18:21;5;5;
78063;PMS5003;67429;51.596;-3.264;2023-04-10T00:20:46;4;4;
78063;PMS5003;67429;51.596;-3.264;2023-04-10T00:23:12;4;4;
78063;PMS5003;67429;51.596;-3.264;2023-04-10T00:25:38;4;3;
78063;PMS5003;67429;51.596;-3.264;2023-04-10T00:28:04;6;5;
78063;PMS5003;67429;51.596;-3.264;2023-04-10T00:30:29;5;5;
78063;PMS5003;67429;51.596;-3.264;2023-04-10T00:32:55;5;5;
78063;PMS5003;67429;51.596;-3.264;2023-04-10T00:35:20;8;7;
78063;PMS5003;67429;51.596;-3.264;2023-04-10T00:37:46;7;7;
78063;PMS5003;67429;51.596;-3.264;2023-04-10T00:40:12;10;10;
78063;PMS5003;67429;51.596;-3.264;2023-04-10T00:42:38;6;6;
78063;PMS5003;67429;51.596;-3.264;2023-04-10T00:45:04;6;6;
78063;PMS5003;67429;51.596;-3.264;2023-04-10T00:47:29;6;5;
78063;PMS5003;67429;51.596;-3.264;2023-04-10T00:49:55;6;5;
78063;PMS5003;67429;51.596;-3.264;2023-04-10T00:52:20;7;6;
78063;PMS5003;67429;51.596;-3.264;2023-04-10T00:54:46;6;5;
78063;PMS5003;67429;51.596;-3.264;2023-04-10T00:57:12;9;8;
78063;PMS5003;67429;51.596;-3.264;2023-04-10T00:59:38;6;6;
78063;PMS5003;67429;51.596;-3.264;2023-04-10T01:02:03;6;6;
78063;PMS5003;67429;51.596;-3.264;2023-04-10T01:04:29;5;5;
78063;PMS5003;67429;51.596;-3.264;2023-04-10T01:06:57;6;5;
78063;PMS5003;67429;51.596;-3.264;2023-04-10T01:09:22;7;7;
78063;PMS5003;67429;51.596;-3.264;2023-04-10T01:11:48;7;7;
78063;PMS5003;67429;51.596;-3.264;2023-04-10T01:14:15;8;7;
78063;PMS5003;67429;51.596;-3.264;2023-04-10T01:16:39;9;9;
78063;PMS5003;67429;51.596;-3.264;2023-04-10T01:19:04;5;5;
78063;PMS5003;67429;51.596;-3.264;2023-04-10T01:21:28;4;4;
78063;PMS5003;67429;51.596;-3.264;2023-04-10T01:26:22;7;7;
78063;PMS5003;67429;51.596;-3.264;2023-04-10T01:31:12;4;4;
78063;PMS5003;67429;51.596;-3.264;2023-04-10T01:33:37;6;6;
78063;PMS5003;67429;51.596;-3.264;2023-04-10T01:36:03;4;4;
78063;PMS5003;67429;51.596;-3.264;2023-04-10T01:38:27;4;4;
78063;PMS5003;67429;51.596;-3.264;2023-04-10T01:40:53;7;6;
78063;PMS5003;67429;51.596;-3.264;2023-04-10T01:43:19;7;6;
78063;PMS5003;67429;51.596;-3.264;2023-04-10T01:45:45;6;6;
78063;PMS5003;67429;51.596;-3.264;2023-04-10T01:48:11;6;6;
78063;PMS5003;67429;51.596;-3.264;2023-04-10T01:50:36;4;4;
78063;PMS5003;67429;51.596;-3.264;2023-04-10T01:53:02;4;3;
78063;PMS5003;67429;51.596;-3.264;2023-04-10T01:55:27;4;4;
78063;PMS5003;67429;51.596;-3.264;2023-04-10T01:57:53;3;3;
78063;PMS5003;67429;51.596;-3.264;2023-04-10T02:00:18;3;3;
78063;PMS5003;67429;51.596;-3.264;2023-04-10T02:02:44;5;5;
78063;PMS5003;67429;51.596;-3.264;2023-04-10T02:05:10;4;4;
78063;PMS5003;67429;51.596;-3.264;2023-04-10T02:07:38;4;4;
78063;PMS5003;67429;51.596;-3.264;2023-04-10T02:10:03;4;4;
78063;PMS5003;67429;51.596;-3.264;2023-04-10T02:12:28;3;3;
78063;PMS5003;67429;51.596;-3.264;2023-04-10T02:14:52;5;4;
78063;PMS5003;67429;51.596;-3.264;2023-04-10T02:17:19;4;4;
78063;PMS5003;67429;51.596;-3.264;2023-04-10T02:19:44;3;3;
78063;PMS5003;67429;51.596;-3.264;2023-04-10T02:22:10;5;5;
78063;PMS5003;67429;51.596;-3.264;2023-04-10T02:24:35;4;4;
78063;PMS5003;67429;51.596;-3.264;2023-04-10T02:27:01;4;4;
78063;PMS5003;67429;51.596;-3.264;2023-04-10T02:29:26;8;7;
78063;PMS5003;67429;51.596;-3.264;2023-04-10T02:31:53;4;4;
78063;PMS5003;67429;51.596;-3.264;2023-04-10T02:34:18;3;3;
78063;PMS5003;67429;51.596;-3.264;2023-04-10T02:36:43;5;5;
78063;PMS5003;67429;51.596;-3.264;2023-04-10T02:39:09;5;5;
78063;PMS5003;67429;51.596;-3.264;2023-04-10T02:41:35;4;4;
78063;PMS5003;67429;51.596;-3.264;2023-04-10T02:44:00;4;4;
78063;PMS5003;67429;51.596;-3.264;2023-04-10T02:46:26;3;3;
78063;PMS5003;67429;51.596;-3.264;2023-04-10T02:48:52;3;3;
78063;PMS5003;67429;51.596;-3.264;2023-04-10T02:51:17;2;2;
78063;PMS5003;67429;51.596;-3.264;2023-04-10T02:53:43;3;3;
78063;PMS5003;67429;51.596;-3.264;2023-04-10T02:56:09;3;3;
78063;PMS5003;67429;51.596;-3.264;2023-04-10T02:58:34;5;4;
78063;PMS5003;67429;51.596;-3.264;2023-04-10T03:01:00;3;3;
78063;PMS5003;67429;51.596;-3.264;2023-04-10T03:03:26;3;3;
78063;PMS5003;67429;51.596;-3.264;2023-04-10T03:05:52;3;3;
78063;PMS5003;67429;51.596;-3.264;2023-04-10T03:08:17;2;2;
78063;PMS5003;67429;51.596;-3.264;2023-04-10T03:10:43;2;2;
78063;PMS5003;67429;51.596;-3.264;2023-04-10T03:13:08;3;3;
78063;PMS5003;67429;51.596;-3.264;2023-04-10T03:15:34;2;2;
78063;PMS5003;67429;51.596;-3.264;2023-04-10T03:17:59;2;2;
78063;PMS5003;67429;51.596;-3.264;2023-04-10T03:20:25;4;3;
78063;PMS5003;67429;51.596;-3.264;2023-04-10T03:22:51;3;3;
78063;PMS5003;67429;51.596;-3.264;2023-04-10T03:25:16;5;5;
78063;PMS5003;67429;51.596;-3.264;2023-04-10T03:27:42;5;5;
78063;PMS5003;67429;51.596;-3.264;2023-04-10T03:30:08;5;5;
78063;PMS5003;67429;51.596;-3.264;2023-04-10T03:32:33;4;3;
78063;PMS5003;67429;51.596;-3.264;2023-04-10T03:35:01;6;5;
78063;PMS5003;67429;51.596;-3.264;2023-04-10T03:37:25;7;6;
78063;PMS5003;67429;51.596;-3.264;2023-04-10T03:39:50;5;5;
78063;PMS5003;67429;51.596;-3.264;2023-04-10T03:42:16;6;5;
78063;PMS5003;67429;51.596;-3.264;2023-04-10T03:44:41;8;7;
78063;PMS5003;67429;51.596;-3.264;2023-04-10T03:47:07;5;5;
78063;PMS5003;67429;51.596;-3.264;2023-04-10T03:49:33;6;6;
78063;PMS5003;67429;51.596;-3.264;2023-04-10T03:51:58;5;5;
78063;PMS5003;67429;51.596;-3.264;2023-04-10T03:54:24;6;6;
78063;PMS5003;67429;51.596;-3.264;2023-04-10T03:56:50;5;4;
78063;PMS5003;67429;51.596;-3.264;2023-04-10T03:59:15;5;4;
78063;PMS5003;67429;51.596;-3.264;2023-04-10T04:01:41;3;3;
78063;PMS5003;67429;51.596;-3.264;2023-04-10T04:04:07;1;1;
78063;PMS5003;67429;51.596;-3.264;2023-04-10T04:06:32;2;2;
78063;PMS5003;67429;51.596;-3.264;2023-04-10T04:08:58;2;2;
78063;PMS5003;67429;51.596;-3.264;2023-04-10T04:11:24;1;1;
78063;PMS5003;67429;51.596;-3.264;2023-04-10T04:13:49;2;2;
78063;PMS5003;67429;51.596;-3.264;2023-04-10T04:16:15;2;2;
78063;PMS5003;67429;51.596;-3.264;2023-04-10T04:18:41;1;1;
78063;PMS5003;67429;51.596;-3.264;2023-04-10T04:21:06;0;0;
78063;PMS5003;67429;51.596;-3.264;2023-04-10T04:23:32;1;1;
78063;PMS5003;67429;51.596;-3.264;2023-04-10T04:25:58;1;1;
78063;PMS5003;67429;51.596;-3.264;2023-04-10T04:28:23;0;0;
78063;PMS5003;67429;51.596;-3.264;2023-04-10T04:30:49;1;0;
78063;PMS5003;67429;51.596;-3.264;2023-04-10T04:33:14;1;1;
78063;PMS5003;67429;51.596;-3.264;2023-04-10T04:35:40;1;1;
78063;PMS5003;67429;51.596;-3.264;2023-04-10T04:38:06;1;1;
78063;PMS5003;67429;51.596;-3.264;2023-04-10T04:40:31;0;0;
78063;PMS5003;67429;51.596;-3.264;2023-04-10T04:42:57;0;0;
78063;PMS5003;67429;51.596;-3.264;2023-04-10T04:45:22;0;0;
78063;PMS5003;67429;51.596;-3.264;2023-04-10T04:47:48;0;0;
78063;PMS5003;67429;51.596;-3.264;2023-04-10T04:50:14;0;0;
78063;PMS5003;67429;51.596;-3.264;2023-04-10T04:52:41;1;1;
78063;PMS5003;67429;51.596;-3.264;2023-04-10T04:55:06;1;1;
78063;PMS5003;67429;51.596;-3.264;2023-04-10T04:57:31;0;0;
78063;PMS5003;67429;51.596;-3.264;2023-04-10T04:59:57;0;0;
78063;PMS5003;67429;51.596;-3.264;2023-04-10T05:02:22;0;0;
78063;PMS5003;67429;51.596;-3.264;2023-04-10T05:04:48;0;0;
78063;PMS5003;67429;51.596;-3.264;2023-04-10T05:07:13;0;0;
78063;PMS5003;67429;51.596;-3.264;2023-04-10T05:09:39;0;0;
78063;PMS5003;67429;51.596;-3.264;2023-04-10T05:12:05;0;0;
78063;PMS5003;67429;51.596;-3.264;2023-04-10T05:14:30;0;0;
78063;PMS5003;67429;51.596;-3.264;2023-04-10T05:16:56;0;0;
78063;PMS5003;67429;51.596;-3.264;2023-04-10T05:19:22;0;0;
78063;PMS5003;67429;51.596;-3.264;2023-04-10T05:21:47;1;1;
78063;PMS5003;67429;51.596;-3.264;2023-04-10T05:24:13;0;0;
78063;PMS5003;67429;51.596;-3.264;2023-04-10T05:26:39;1;1;
78063;PMS5003;67429;51.596;-3.264;2023-04-10T05:29:04;1;1;
78063;PMS5003;67429;51.596;-3.264;2023-04-10T05:31:30;1;1;
78063;PMS5003;67429;51.596;-3.264;2023-04-10T05:33:55;0;0;
78063;PMS5003;67429;51.596;-3.264;2023-04-10T05:36:21;1;1;
78063;PMS5003;67429;51.596;-3.264;2023-04-10T05:38:47;0;0;
78063;PMS5003;67429;51.596;-3.264;2023-04-10T05:41:13;2;1;
78063;PMS5003;67429;51.596;-3.264;2023-04-10T05:43:38;0;0;
78063;PMS5003;67429;51.596;-3.264;2023-04-10T05:46:04;1;0;
78063;PMS5003;67429;51.596;-3.264;2023-04-10T05:48:29;1;1;
78063;PMS5003;67429;51.596;-3.264;2023-04-10T05:50:55;1;1;
78063;PMS5003;67429;51.596;-3.264;2023-04-10T05:53:27;0;0;
78063;PMS5003;67429;51.596;-3.264;2023-04-10T05:55:48;0;0;
78063;PMS5003;67429;51.596;-3.264;2023-04-10T05:58:12;0;0;
78063;PMS5003;67429;51.596;-3.264;2023-04-10T06:00:38;0;0;
78063;PMS5003;67429;51.596;-3.264;2023-04-10T06:03:03;0;0;
78063;PMS5003;67429;51.596;-3.264;2023-04-10T06:05:29;0;0;
78063;PMS5003;67429;51.596;-3.264;2023-04-10T06:07:54;0;0;
78063;PMS5003;67429;51.596;-3.264;2023-04-10T06:10:20;0;0;
78063;PMS5003;67429;51.596;-3.264;2023-04-10T06:12:46;0;0;
78063;PMS5003;67429;51.596;-3.264;2023-04-10T06:15:12;0;0;
78063;PMS5003;67429;51.596;-3.264;2023-04-10T06:17:40;1;1;
78063;PMS5003;67429;51.596;-3.264;2023-04-10T06:20:03;0;0;
78063;PMS5003;67429;51.596;-3.264;2023-04-10T06:22:28;0;0;
78063;PMS5003;67429;51.596;-3.264;2023-04-10T06:24:54;0;0;
78063;PMS5003;67429;51.596;-3.264;2023-04-10T06:27:20;0;0;
78063;PMS5003;67429;51.596;-3.264;2023-04-10T06:29:45;0;0;
78063;PMS5003;67429;51.596;-3.264;2023-04-10T06:32:11;1;1;
78063;PMS5003;67429;51.596;-3.264;2023-04-10T06:34:37;1;1;
78063;PMS5003;67429;51.596;-3.264;2023-04-10T06:37:02;1;1;
78063;PMS5003;67429;51.596;-3.264;2023-04-10T06:39:28;2;1;
78063;PMS5003;67429;51.596;-3.264;2023-04-10T06:41:53;2;2;
78063;PMS5003;67429;51.596;-3.264;2023-04-10T06:44:19;5;5;
78063;PMS5003;67429;51.596;-3.264;2023-04-10T06:46:44;4;3;
78063;PMS5003;67429;51.596;-3.264;2023-04-10T06:49:10;2;2;
78063;PMS5003;67429;51.596;-3.264;2023-04-10T06:51:41;0;0;
78063;PMS5003;67429;51.596;-3.264;2023-04-10T06:54:01;2;1;
78063;PMS5003;67429;51.596;-3.264;2023-04-10T06:56:27;4;3;
78063;PMS5003;67429;51.596;-3.264;2023-04-10T06:58:53;1;1;
78063;PMS5003;67429;51.596;-3.264;2023-04-10T07:01:18;3;2;
78063;PMS5003;67429;51.596;-3.264;2023-04-10T07:03:44;1;1;
78063;PMS5003;67429;51.596;-3.264;2023-04-10T07:06:10;1;1;
78063;PMS5003;67429;51.596;-3.264;2023-04-10T07:08:35;4;1;
78063;PMS5003;67429;51.596;-3.264;2023-04-10T07:11:01;2;2;
78063;PMS5003;67429;51.596;-3.264;2023-04-10T07:13:26;2;2;
78063;PMS5003;67429;51.596;-3.264;2023-04-10T07:15:52;1;1;
78063;PMS5003;67429;51.596;-3.264;2023-04-10T07:18:18;2;2;
78063;PMS5003;67429;51.596;-3.264;2023-04-10T07:20:43;2;2;
78063;PMS5003;67429;51.596;-3.264;2023-04-10T07:23:09;2;2;
78063;PMS5003;67429;51.596;-3.264;2023-04-10T07:25:35;2;1;
78063;PMS5003;67429;51.596;-3.264;2023-04-10T07:28:00;2;2;
78063;PMS5003;67429;51.596;-3.264;2023-04-10T07:30:26;1;1;
78063;PMS5003;67429;51.596;-3.264;2023-04-10T07:32:51;7;6;
78063;PMS5003;67429;51.596;-3.264;2023-04-10T07:35:17;6;6;
78063;PMS5003;67429;51.596;-3.264;2023-04-10T07:37:42;4;3;
78063;PMS5003;67429;51.596;-3.264;2023-04-10T07:40:08;6;4;
78063;PMS5003;67429;51.596;-3.264;2023-04-10T07:42:33;7;6;
78063;PMS5003;67429;51.596;-3.264;2023-04-10T07:44:59;6;5;
78063;PMS5003;67429;51.596;-3.264;2023-04-10T07:47:25;5;5;
78063;PMS5003;67429;51.596;-3.264;2023-04-10T07:49:50;6;5;
78063;PMS5003;67429;51.596;-3.264;2023-04-10T07:52:16;11;6;
78063;PMS5003;67429;51.596;-3.264;2023-04-10T07:54:42;6;6;
78063;PMS5003;67429;51.596;-3.264;2023-04-10T07:57:07;5;5;
78063;PMS5003;67429;51.596;-3.264;2023-04-10T07:59:33;5;5;
78063;PMS5003;67429;51.596;-3.264;2023-04-10T08:01:58;7;6;
78063;PMS5003;67429;51.596;-3.264;2023-04-10T08:04:24;6;5;
78063;PMS5003;67429;51.596;-3.264;2023-04-10T08:06:49;7;6;
78063;PMS5003;67429;51.596;-3.264;2023-04-10T08:09:14;6;5;
78063;PMS5003;67429;51.596;-3.264;2023-04-10T08:11:40;7;6;
78063;PMS5003;67429;51.596;-3.264;2023-04-10T08:14:05;5;4;
78063;PMS5003;67429;51.596;-3.264;2023-04-10T08:16:32;6;6;
78063;PMS5003;67429;51.596;-3.264;2023-04-10T08:18:57;4;4;
78063;PMS5003;67429;51.596;-3.264;2023-04-10T08:21:22;4;4;
78063;PMS5003;67429;51.596;-3.264;2023-04-10T08:23:49;7;6;
78063;PMS5003;67429;51.596;-3.264;2023-04-10T08:26:14;11;10;
78063;PMS5003;67429;51.596;-3.264;2023-04-10T08:28:40;7;6;
78063;PMS5003;67429;51.596;-3.264;2023-04-10T08:31:05;6;6;
78063;PMS5003;67429;51.596;-3.264;2023-04-10T08:33:30;5;5;
78063;PMS5003;67429;51.596;-3.264;2023-04-10T08:35:56;6;6;
78063;PMS5003;67429;51.596;-3.264;2023-04-10T08:38:22;8;7;
78063;PMS5003;67429;51.596;-3.264;2023-04-10T08:40:47;6;5;
78063;PMS5003;67429;51.596;-3.264;2023-04-10T08:43:13;7;7;
78063;PMS5003;67429;51.596;-3.264;2023-04-10T08:45:39;6;5;
78063;PMS5003;67429;51.596;-3.264;2023-04-10T08:48:04;6;6;
78063;PMS5003;67429;51.596;-3.264;2023-04-10T08:50:29;7;7;
78063;PMS5003;67429;51.596;-3.264;2023-04-10T08:52:55;7;6;
78063;PMS5003;67429;51.596;-3.264;2023-04-10T08:55:20;11;10;
78063;PMS5003;67429;51.596;-3.264;2023-04-10T08:57:45;12;10;
78063;PMS5003;67429;51.596;-3.264;2023-04-10T09:00:11;14;13;
78063;PMS5003;67429;51.596;-3.264;2023-04-10T09:02:37;6;6;
78063;PMS5003;67429;51.596;-3.264;2023-04-10T09:05:01;14;13;
78063;PMS5003;67429;51.596;-3.264;2023-04-10T09:07:27;19;19;
78063;PMS5003;67429;51.596;-3.264;2023-04-10T09:09:52;8;8;
78063;PMS5003;67429;51.596;-3.264;2023-04-10T09:12:22;11;10;
78063;PMS5003;67429;51.596;-3.264;2023-04-10T09:14:43;15;14;
78063;PMS5003;67429;51.596;-3.264;2023-04-10T09:17:11;10;8;
78063;PMS5003;67429;51.596;-3.264;2023-04-10T09:19:34;19;19;
78063;PMS5003;67429;51.596;-3.264;2023-04-10T09:21:59;20;20;
78063;PMS5003;67429;51.596;-3.264;2023-04-10T09:24:25;9;8;
78063;PMS5003;67429;51.596;-3.264;2023-04-10T09:26:50;12;12;
78063;PMS5003;67429;51.596;-3.264;2023-04-10T09:29:15;9;8;
78063;PMS5003;67429;51.596;-3.264;2023-04-10T09:31:41;10;10;
78063;PMS5003;67429;51.596;-3.264;2023-04-10T09:34:06;10;10;
78063;PMS5003;67429;51.596;-3.264;2023-04-10T09:36:31;7;5;
78063;PMS5003;67429;51.596;-3.264;2023-04-10T09:38:56;7;7;
78063;PMS5003;67429;51.596;-3.264;2023-04-10T09:41:22;12;7;
78063;PMS5003;67429;51.596;-3.264;2023-04-10T09:43:47;8;8;
78063;PMS5003;67429;51.596;-3.264;2023-04-10T09:46:13;7;7;
78063;PMS5003;67429;51.596;-3.264;2023-04-10T09:48:40;12;9;
78063;PMS5003;67429;51.596;-3.264;2023-04-10T09:51:04;8;6;
78063;PMS5003;67429;51.596;-3.264;2023-04-10T09:53:29;9;8;
78063;PMS5003;67429;51.596;-3.264;2023-04-10T09:55:55;5;4;
78063;PMS5003;67429;51.596;-3.264;2023-04-10T09:58:20;8;6;
78063;PMS5003;67429;51.596;-3.264;2023-04-10T10:00:46;5;5;
78063;PMS5003;67429;51.596;-3.264;2023-04-10T10:03:12;10;7;
78063;PMS5003;67429;51.596;-3.264;2023-04-10T10:05:37;7;7;
78063;PMS5003;67429;51.596;-3.264;2023-04-10T10:08:01;8;6;
78063;PMS5003;67429;51.596;-3.264;2023-04-10T10:10:27;7;7;
78063;PMS5003;67429;51.596;-3.264;2023-04-10T10:12:53;4;4;
78063;PMS5003;67429;51.596;-3.264;2023-04-10T10:15:19;7;5;
78063;PMS5003;67429;51.596;-3.264;2023-04-10T10:17:45;6;4;
78063;PMS5003;67429;51.596;-3.264;2023-04-10T10:20:10;4;4;
78063;PMS5003;67429;51.596;-3.264;2023-04-10T10:22:35;6;5;
78063;PMS5003;67429;51.596;-3.264;2023-04-10T10:25:01;5;3;
78063;PMS5003;67429;51.596;-3.264;2023-04-10T10:27:26;5;3;
78063;PMS5003;67429;51.596;-3.264;2023-04-10T10:29:52;2;2;
78063;PMS5003;67429;51.596;-3.264;2023-04-10T10:32:18;6;5;
78063;PMS5003;67429;51.596;-3.264;2023-04-10T10:34:43;6;5;
78063;PMS5003;67429;51.596;-3.264;2023-04-10T10:37:08;7;7;
78063;PMS5003;67429;51.596;-3.264;2023-04-10T10:39:35;3;3;
78063;PMS5003;67429;51.596;-3.264;2023-04-10T10:42:01;7;6;
78063;PMS5003;67429;51.596;-3.264;2023-04-10T10:44:27;15;13;
78063;PMS5003;67429;51.596;-3.264;2023-04-10T10:46:51;7;4;
78063;PMS5003;67429;51.596;-3.264;2023-04-10T10:49:15;6;5;
78063;PMS5003;67429;51.596;-3.264;2023-04-10T10:51:42;4;4;
78063;PMS5003;67429;51.596;-3.264;2023-04-10T10:56:33;3;3;
78063;PMS5003;67429;51.596;-3.264;2023-04-10T10:58:57;4;3;
78063;PMS5003;67429;51.596;-3.264;2023-04-10T11:01:22;10;8;
78063;PMS5003;67429;51.596;-3.264;2023-04-10T11:03:48;16;14;
78063;PMS5003;67429;51.596;-3.264;2023-04-10T11:06:14;6;4;
78063;PMS5003;67429;51.596;-3.264;2023-04-10T11:08:41;4;3;
78063;PMS5003;67429;51.596;-3.264;2023-04-10T11:11:05;4;4;
78063;PMS5003;67429;51.596;-3.264;2023-04-10T11:13:30;5;4;
78063;PMS5003;67429;51.596;-3.264;2023-04-10T11:15:56;7;6;
78063;PMS5003;67429;51.596;-3.264;2023-04-10T11:23:13;5;4;
78063;PMS5003;67429;51.596;-3.264;2023-04-10T11:25:47;4;2;
78063;PMS5003;67429;51.596;-3.264;2023-04-10T11:28:04;3;3;
78063;PMS5003;67429;51.596;-3.264;2023-04-10T11:30:30;3;2;
78063;PMS5003;67429;51.596;-3.264;2023-04-10T11:32:55;4;3;
78063;PMS5003;67429;51.596;-3.264;2023-04-10T11:35:20;2;2;
78063;PMS5003;67429;51.596;-3.264;2023-04-10T11:37:46;6;5;
78063;PMS5003;67429;51.596;-3.264;2023-04-10T11:40:12;4;4;
78063;PMS5003;67429;51.596;-3.264;2023-04-10T11:42:37;2;2;
78063;PMS5003;67429;51.596;-3.264;2023-04-10T11:47:28;2;2;
78063;PMS5003;67429;51.596;-3.264;2023-04-10T11:49:54;3;2;
78063;PMS5003;67429;51.596;-3.264;2023-04-10T11:52:23;2;2;
78063;PMS5003;67429;51.596;-3.264;2023-04-10T11:54:47;3;2;
78063;PMS5003;67429;51.596;-3.264;2023-04-10T11:57:11;3;3;
78063;PMS5003;67429;51.596;-3.264;2023-04-10T11:59:36;1;1;
78063;PMS5003;67429;51.596;-3.264;2023-04-10T12:02:04;2;2;
78063;PMS5003;67429;51.596;-3.264;2023-04-10T12:04:27;2;2;
78063;PMS5003;67429;51.596;-3.264;2023-04-10T12:06:55;2;2;
78063;PMS5003;67429;51.596;-3.264;2023-04-10T12:09:19;2;2;
78063;PMS5003;67429;51.596;-3.264;2023-04-10T12:11:47;0;0;
78063;PMS5003;67429;51.596;-3.264;2023-04-10T12:14:09;1;1;
78063;PMS5003;67429;51.596;-3.264;2023-04-10T12:16:35;0;0;
78063;PMS5003;67429;51.596;-3.264;2023-04-10T12:19:01;1;1;
78063;PMS5003;67429;51.596;-3.264;2023-04-10T12:21:26;2;2;
78063;PMS5003;67429;51.596;-3.264;2023-04-10T12:23:52;1;0;
78063;PMS5003;67429;51.596;-3.264;2023-04-10T12:26:17;1;1;
78063;PMS5003;67429;51.596;-3.264;2023-04-10T12:31:08;0;0;
78063;PMS5003;67429;51.596;-3.264;2023-04-10T12:33:34;0;0;
78063;PMS5003;67429;51.596;-3.264;2023-04-10T12:36:00;1;1;
78063;PMS5003;67429;51.596;-3.264;2023-04-10T12:38:34;1;1;
78063;PMS5003;67429;51.596;-3.264;2023-04-10T12:40:57;2;1;
78063;PMS5003;67429;51.596;-3.264;2023-04-10T12:45:42;1;1;
78063;PMS5003;67429;51.596;-3.264;2023-04-10T12:48:08;3;3;
78063;PMS5003;67429;51.596;-3.264;2023-04-10T12:50:33;1;0;
78063;PMS5003;67429;51.596;-3.264;2023-04-10T12:53:00;2;2;
78063;PMS5003;67429;51.596;-3.264;2023-04-10T12:55:24;2;2;
78063;PMS5003;67429;51.596;-3.264;2023-04-10T12:57:50;2;2;
78063;PMS5003;67429;51.596;-3.264;2023-04-10T13:00:17;2;1;
78063;PMS5003;67429;51.596;-3.264;2023-04-10T13:02:41;3;2;
78063;PMS5003;67429;51.596;-3.264;2023-04-10T13:05:07;1;1;
78063;PMS5003;67429;51.596;-3.264;2023-04-10T13:07:32;1;1;
78063;PMS5003;67429;51.596;-3.264;2023-04-10T13:09:58;1;1;
78063;PMS5003;67429;51.596;-3.264;2023-04-10T13:12:23;1;1;
78063;PMS5003;67429;51.596;-3.264;2023-04-10T13:14:54;3;1;
78063;PMS5003;67429;51.596;-3.264;2023-04-10T13:17:14;2;1;
78063;PMS5003;67429;51.596;-3.264;2023-04-10T13:19:40;3;3;
78063;PMS5003;67429;51.596;-3.264;2023-04-10T13:22:06;2;2;
78063;PMS5003;67429;51.596;-3.264;2023-04-10T13:24:32;1;1;
78063;PMS5003;67429;51.596;-3.264;2023-04-10T13:26:57;4;3;
78063;PMS5003;67429;51.596;-3.264;2023-04-10T13:29:22;3;2;
78063;PMS5003;67429;51.596;-3.264;2023-04-10T13:31:48;5;4;
78063;PMS5003;67429;51.596;-3.264;2023-04-10T13:34:14;3;3;
78063;PMS5003;67429;51.596;-3.264;2023-04-10T13:36:39;3;2;
78063;PMS5003;67429;51.596;-3.264;2023-04-10T13:39:04;3;3;
78063;PMS5003;67429;51.596;-3.264;2023-04-10T13:41:30;2;2;
78063;PMS5003;67429;51.596;-3.264;2023-04-10T13:43:56;5;5;
78063;PMS5003;67429;51.596;-3.264;2023-04-10T13:46:21;7;3;
78063;PMS5003;67429;51.596;-3.264;2023-04-10T13:48:47;2;2;
78063;PMS5003;67429;51.596;-3.264;2023-04-10T13:51:13;4;2;
78063;PMS5003;67429;51.596;-3.264;2023-04-10T13:53:38;2;2;
78063;PMS5003;67429;51.596;-3.264;2023-04-10T13:56:04;4;2;
78063;PMS5003;67429;51.596;-3.264;2023-04-10T13:58:29;3;2;
78063;PMS5003;67429;51.596;-3.264;2023-04-10T14:00:55;2;2;
78063;PMS5003;67429;51.596;-3.264;2023-04-10T14:03:26;5;3;
78063;PMS5003;67429;51.596;-3.264;2023-04-10T14:05:46;2;2;
78063;PMS5003;67429;51.596;-3.264;2023-04-10T14:08:12;2;2;
78063;PMS5003;67429;51.596;-3.264;2023-04-10T14:10:38;4;3;
78063;PMS5003;67429;51.596;-3.264;2023-04-10T14:13:03;3;2;
78063;PMS5003;67429;51.596;-3.264;2023-04-10T14:15:28;3;3;
78063;PMS5003;67429;51.596;-3.264;2023-04-10T14:17:54;3;2;
78063;PMS5003;67429;51.596;-3.264;2023-04-10T14:20:19;7;4;
78063;PMS5003;67429;51.596;-3.264;2023-04-10T14:22:45;4;3;
78063;PMS5003;67429;51.596;-3.264;2023-04-10T14:25:10;4;3;
78063;PMS5003;67429;51.596;-3.264;2023-04-10T14:27:36;4;4;
78063;PMS5003;67429;51.596;-3.264;2023-04-10T14:30:02;3;2;
78063;PMS5003;67429;51.596;-3.264;2023-04-10T14:32:27;3;2;
78063;PMS5003;67429;51.596;-3.264;2023-04-10T14:34:53;4;4;
78063;PMS5003;67429;51.596;-3.264;2023-04-10T14:37:18;2;2;
78063;PMS5003;67429;51.596;-3.264;2023-04-10T14:39:44;3;2;
78063;PMS5003;67429;51.596;-3.264;2023-04-10T14:42:10;16;15;
78063;PMS5003;67429;51.596;-3.264;2023-04-10T14:44:35;5;5;
78063;PMS5003;67429;51.596;-3.264;2023-04-10T14:47:01;2;2;
78063;PMS5003;67429;51.596;-3.264;2023-04-10T14:49:27;5;5;
78063;PMS5003;67429;51.596;-3.264;2023-04-10T14:51:53;5;3;
78063;PMS5003;67429;51.596;-3.264;2023-04-10T14:54:18;3;3;
78063;PMS5003;67429;51.596;-3.264;2023-04-10T14:56:44;7;6;
78063;PMS5003;67429;51.596;-3.264;2023-04-10T14:59:10;2;2;
78063;PMS5003;67429;51.596;-3.264;2023-04-10T15:01:35;3;2;
78063;PMS5003;67429;51.596;-3.264;2023-04-10T15:04:01;2;2;
78063;PMS5003;67429;51.596;-3.264;2023-04-10T15:06:27;3;2;
78063;PMS5003;67429;51.596;-3.264;2023-04-10T15:08:53;2;2;
78063;PMS5003;67429;51.596;-3.264;2023-04-10T15:11:17;3;3;
78063;PMS5003;67429;51.596;-3.264;2023-04-10T15:13:46;2;2;
78063;PMS5003;67429;51.596;-3.264;2023-04-10T15:16:08;4;4;
78063;PMS5003;67429;51.596;-3.264;2023-04-10T15:18:34;3;3;
78063;PMS5003;67429;51.596;-3.264;2023-04-10T15:21:00;3;3;
78063;PMS5003;67429;51.596;-3.264;2023-04-10T15:23:25;6;5;
78063;PMS5003;67429;51.596;-3.264;2023-04-10T15:25:50;6;4;
78063;PMS5003;67429;51.596;-3.264;2023-04-10T15:28:16;14;14;
78063;PMS5003;67429;51.596;-3.264;2023-04-10T15:30:42;3;3;
78063;PMS5003;67429;51.596;-3.264;2023-04-10T15:33:07;18;16;
78063;PMS5003;67429;51.596;-3.264;2023-04-10T15:35:32;5;5;
78063;PMS5003;67429;51.596;-3.264;2023-04-10T15:37:57;11;11;
78063;PMS5003;67429;51.596;-3.264;2023-04-10T15:40:23;6;5;
78063;PMS5003;67429;51.596;-3.264;2023-04-10T15:42:48;8;7;
78063;PMS5003;67429;51.596;-3.264;2023-04-10T15:45:13;6;6;
78063;PMS5003;67429;51.596;-3.264;2023-04-10T15:47:39;4;2;
78063;PMS5003;67429;51.596;-3.264;2023-04-10T15:50:05;7;5;
78063;PMS5003;67429;51.596;-3.264;2023-04-10T15:52:30;6;4;
78063;PMS5003;67429;51.596;-3.264;2023-04-10T15:54:56;12;11;
78063;PMS5003;67429;51.596;-3.264;2023-04-10T15:57:22;5;5;
78063;PMS5003;67429;51.596;-3.264;2023-04-10T15:59:50;7;5;
78063;PMS5003;67429;51.596;-3.264;2023-04-10T16:02:13;9;9;
78063;PMS5003;67429;51.596;-3.264;2023-04-10T16:04:38;5;3;
78063;PMS5003;67429;51.596;-3.264;2023-04-10T16:07:04;3;2;
78063;PMS5003;67429;51.596;-3.264;2023-04-10T16:09:29;6;4;
78063;PMS5003;67429;51.596;-3.264;2023-04-10T16:11:55;10;10;
78063;PMS5003;67429;51.596;-3.264;2023-04-10T16:14:21;7;5;
78063;PMS5003;67429;51.596;-3.264;2023-04-10T16:16:45;7;6;
78063;PMS5003;67429;51.596;-3.264;2023-04-10T16:19:12;3;3;
78063;PMS5003;67429;51.596;-3.264;2023-04-10T16:21:37;3;2;
78063;PMS5003;67429;51.596;-3.264;2023-04-10T16:24:03;6;6;
78063;PMS5003;67429;51.596;-3.264;2023-04-10T16:26:28;5;5;
78063;PMS5003;67429;51.596;-3.264;2023-04-10T16:28:54;10;8;
78063;PMS5003;67429;51.596;-3.264;2023-04-10T16:31:19;5;5;
78063;PMS5003;67429;51.596;-3.264;2023-04-10T16:33:45;9;9;
78063;PMS5003;67429;51.596;-3.264;2023-04-10T16:36:11;4;4;
78063;PMS5003;67429;51.596;-3.264;2023-04-10T16:38:36;7;4;